createdAt,value
2022-12-03T00:00:38.636Z,102597.13
2022-12-03T00:03:05.083Z,102581.88
2022-12-03T00:05:32.366Z,102589.84
2022-12-03T00:07:58.750Z,102583.66
2022-12-03T00:10:25.077Z,102589.22
2022-12-03T00:12:51.531Z,102581.06
2022-12-03T00:15:18.126Z,102577.66
2022-12-03T00:17:44.422Z,102578.53
2022-12-03T00:20:18.220Z,102580.31
2022-12-03T00:22:44.670Z,102577.59
2022-12-03T00:25:11.000Z,102584.16
2022-12-03T00:27:37.394Z,102576.28
2022-12-03T00:30:04.895Z,102579.03
2022-12-03T00:32:31.263Z,102580.94
2022-12-03T00:34:57.628Z,102565.97
2022-12-03T00:37:23.939Z,102569.59
2022-12-03T00:39:50.451Z,102565.03
2022-12-03T00:42:16.938Z,102566.06
2022-12-03T00:44:43.611Z,102560.66
2022-12-03T00:47:10.007Z,102555.28
2022-12-03T00:49:36.618Z,102555.09
2022-12-03T00:52:02.987Z,102553.44
2022-12-03T00:54:32.089Z,102556.09
2022-12-03T00:56:59.085Z,102561.75
2022-12-03T00:59:25.570Z,102552.72
2022-12-03T01:01:51.967Z,102549.22
2022-12-03T01:04:18.653Z,102557.06
2022-12-03T01:06:45.204Z,102535.84
2022-12-03T01:09:11.626Z,102545.50
2022-12-03T01:11:37.950Z,102545.31
2022-12-03T01:14:13.936Z,102533.94
2022-12-03T01:16:40.679Z,102537.75
2022-12-03T01:19:09.023Z,102539.47
2022-12-03T01:21:35.530Z,102540.47
2022-12-03T01:24:02.539Z,102541.44
2022-12-03T01:26:29.133Z,102530.56
2022-12-03T01:28:55.588Z,102533.25
2022-12-03T01:31:22.225Z,102529.63
2022-12-03T01:33:48.589Z,102529.50
2022-12-03T01:36:14.920Z,102528.84
2022-12-03T01:38:41.276Z,102534.00
2022-12-03T01:41:11.662Z,102530.41
2022-12-03T01:43:38.604Z,102543.03
2022-12-03T01:46:05.183Z,102534.97
2022-12-03T01:48:35.516Z,102534.78
2022-12-03T01:51:02.031Z,102531.34
2022-12-03T01:53:28.459Z,102540.25
2022-12-03T01:55:55.284Z,102525.16
2022-12-03T01:58:27.161Z,102530.41
2022-12-03T02:00:53.840Z,102533.13
2022-12-03T02:03:25.313Z,102528.69
2022-12-03T02:05:52.484Z,102533.19
2022-12-03T02:08:33.383Z,102521.56
2022-12-03T02:11:29.244Z,102524.88
2022-12-03T02:14:01.689Z,102526.91
2022-12-03T02:16:29.126Z,102526.00
2022-12-03T02:18:57.213Z,102518.78
2022-12-03T02:22:04.287Z,102528.44
2022-12-03T02:24:58.290Z,102527.47
2022-12-03T02:27:25.398Z,102522.09
2022-12-03T02:29:51.971Z,102519.50
2022-12-03T02:32:20.411Z,102530.81
2022-12-03T02:34:46.844Z,102525.53
2022-12-03T02:37:17.236Z,102525.66
2022-12-03T02:39:50.292Z,102523.88
2022-12-03T02:42:17.819Z,102517.50
2022-12-03T02:44:44.280Z,102518.41
2022-12-03T02:47:11.124Z,102513.00
2022-12-03T02:49:37.525Z,102526.06
2022-12-03T02:52:04.206Z,102512.53
2022-12-03T02:54:31.190Z,102507.53
2022-12-03T02:56:57.761Z,102513.66
2022-12-03T02:59:24.750Z,102509.44
2022-12-03T03:01:51.203Z,102505.81
2022-12-03T03:04:17.723Z,102508.72
2022-12-03T03:06:44.389Z,102508.31
2022-12-03T03:09:10.805Z,102502.31
2022-12-03T03:11:37.362Z,102502.91
2022-12-03T03:14:04.221Z,102500.22
2022-12-03T03:16:30.751Z,102496.66
2022-12-03T03:18:57.120Z,102495.78
2022-12-03T03:21:23.708Z,102495.78
2022-12-03T03:23:52.426Z,102498.16
2022-12-03T03:26:19.639Z,102496.50
2022-12-03T03:28:50.788Z,102501.69
2022-12-03T03:31:20.946Z,102492.84
2022-12-03T03:33:49.316Z,102492.09
2022-12-03T03:36:16.584Z,102495.72
2022-12-03T03:38:43.972Z,102487.81
2022-12-03T03:41:12.365Z,102487.13
2022-12-03T03:43:40.362Z,102483.72
2022-12-03T03:46:07.713Z,102480.16
2022-12-03T03:48:35.308Z,102489.78
2022-12-03T03:51:04.227Z,102486.16
2022-12-03T03:53:30.958Z,102486.91
2022-12-03T03:55:57.418Z,102491.31
2022-12-03T03:58:23.891Z,102478.91
2022-12-03T04:00:50.402Z,102479.75
2022-12-03T04:03:16.811Z,102480.47
2022-12-03T04:05:44.828Z,102468.16
2022-12-03T04:08:11.288Z,102469.06
2022-12-03T04:10:37.653Z,102467.22
2022-12-03T04:13:04.899Z,102472.44
2022-12-03T04:15:31.449Z,102467.97
2022-12-03T04:17:57.780Z,102461.66
2022-12-03T04:20:24.106Z,102464.34
2022-12-03T04:22:50.715Z,102461.94
2022-12-03T04:25:17.078Z,102457.34
2022-12-03T04:27:45.381Z,102459.91
2022-12-03T04:30:12.206Z,102455.38
2022-12-03T04:32:38.744Z,102452.66
2022-12-03T04:35:05.393Z,102467.03
2022-12-03T04:37:32.066Z,102459.06
2022-12-03T04:39:58.366Z,102459.91
2022-12-03T04:42:25.011Z,102452.47
2022-12-03T04:44:52.793Z,102456.34
2022-12-03T04:47:21.316Z,102457.09
2022-12-03T04:49:50.327Z,102454.41
2022-12-03T04:52:19.091Z,102442.97
2022-12-03T04:54:46.281Z,102455.63
2022-12-03T04:57:13.092Z,102444.09
2022-12-03T04:59:39.937Z,102454.78
2022-12-03T05:02:07.117Z,102459.78
2022-12-03T05:04:33.810Z,102455.44
2022-12-03T05:07:00.169Z,102450.09
2022-12-03T05:09:26.583Z,102452.88
2022-12-03T05:11:52.905Z,102450.22
2022-12-03T05:14:19.346Z,102453.66
2022-12-03T05:16:45.971Z,102452.53
2022-12-03T05:19:12.390Z,102445.63
2022-12-03T05:21:38.744Z,102448.38
2022-12-03T05:24:05.590Z,102444.03
2022-12-03T05:26:31.934Z,102444.75
2022-12-03T05:28:58.369Z,102443.94
2022-12-03T05:31:24.846Z,102442.13
2022-12-03T05:33:51.400Z,102439.78
2022-12-03T05:36:17.819Z,102443.34
2022-12-03T05:38:44.258Z,102438.00
2022-12-03T05:41:10.722Z,102441.63
2022-12-03T05:43:37.145Z,102441.50
2022-12-03T05:46:03.550Z,102439.84
2022-12-03T05:48:29.975Z,102441.56
2022-12-03T05:50:56.291Z,102440.66
2022-12-03T05:53:22.621Z,102436.16
2022-12-03T05:55:48.949Z,102430.13
2022-12-03T05:58:15.419Z,102422.88
2022-12-03T06:00:43.040Z,102421.03
2022-12-03T06:03:10.524Z,102419.09
2022-12-03T06:05:37.239Z,102423.09
2022-12-03T06:08:03.890Z,102416.72
2022-12-03T06:10:30.379Z,102416.22
2022-12-03T06:12:56.999Z,102410.72
2022-12-03T06:15:23.933Z,102410.13
2022-12-03T06:17:50.576Z,102410.06
2022-12-03T06:20:19.355Z,102414.50
2022-12-03T06:22:46.586Z,102400.19
2022-12-03T06:25:13.819Z,102407.41
2022-12-03T06:27:40.488Z,102395.75
2022-12-03T06:30:08.137Z,102401.66
2022-12-03T06:32:34.678Z,102407.25
2022-12-03T06:35:01.179Z,102404.59
2022-12-03T06:37:27.717Z,102401.03
2022-12-03T06:39:54.107Z,102408.16
2022-12-03T06:42:20.476Z,102402.06
2022-12-03T06:44:46.859Z,102408.97
2022-12-03T06:47:13.618Z,102396.75
2022-12-03T06:49:40.014Z,102404.00
2022-12-03T06:52:06.517Z,102400.44
2022-12-03T06:54:33.062Z,102400.25
2022-12-03T06:56:59.750Z,102409.41
2022-12-03T06:59:26.104Z,102407.34
2022-12-03T07:01:52.509Z,102399.72
2022-12-03T07:04:21.173Z,102400.63
2022-12-03T07:06:47.555Z,102401.47
2022-12-03T07:09:15.127Z,102411.50
2022-12-03T07:11:41.501Z,102408.06
2022-12-03T07:14:09.013Z,102418.44
2022-12-03T07:16:36.320Z,102420.28
2022-12-03T07:19:04.279Z,102419.44
2022-12-03T07:21:30.724Z,102421.09
2022-12-03T07:23:59.592Z,102408.06
2022-12-03T07:26:26.271Z,102429.13
2022-12-03T07:28:52.714Z,102426.47
2022-12-03T07:31:19.134Z,102429.19
2022-12-03T07:33:46.469Z,102436.25
2022-12-03T07:36:13.230Z,102425.56
2022-12-03T07:38:39.914Z,102431.09
2022-12-03T07:41:06.365Z,102426.63
2022-12-03T07:43:36.227Z,102421.41
2022-12-03T07:46:02.658Z,102437.91
2022-12-03T07:48:29.072Z,102410.78
2022-12-03T07:50:55.457Z,102433.28
2022-12-03T07:53:21.830Z,102431.56
2022-12-03T07:55:48.195Z,102411.63
2022-12-03T07:58:14.894Z,102433.63
2022-12-03T08:00:41.298Z,102428.91
2022-12-03T08:03:08.032Z,102420.03
2022-12-03T08:05:34.452Z,102432.03
2022-12-03T08:08:01.861Z,102426.81
2022-12-03T08:10:29.935Z,102431.44
2022-12-03T08:12:59.000Z,102418.03
2022-12-03T08:15:31.052Z,102429.56
2022-12-03T08:18:04.894Z,102409.06
2022-12-03T08:20:39.293Z,102418.09
2022-12-03T08:23:14.648Z,102421.53
2022-12-03T08:25:42.356Z,102416.31
2022-12-03T08:28:19.493Z,102410.03
2022-12-03T08:31:00.700Z,102404.94
2022-12-03T08:33:37.159Z,102411.09
2022-12-03T08:36:20.799Z,102413.81
2022-12-03T08:39:29.851Z,102415.13
2022-12-03T08:42:13.885Z,102405.50
2022-12-03T08:44:40.844Z,102418.03
2022-12-03T08:47:16.011Z,102388.25
2022-12-03T08:49:47.388Z,102389.91
2022-12-03T08:52:20.375Z,102416.06
2022-12-03T08:54:55.709Z,102411.56
2022-12-03T08:57:31.291Z,102410.78
2022-12-03T09:00:26.631Z,102404.94
2022-12-03T09:02:55.490Z,102408.19
2022-12-03T09:05:27.370Z,102408.06
2022-12-03T09:07:54.031Z,102396.66
2022-12-03T09:10:20.890Z,102394.19
2022-12-03T09:12:47.584Z,102400.81
2022-12-03T09:15:15.969Z,102396.66
2022-12-03T09:17:42.481Z,102391.38
2022-12-03T09:20:09.244Z,102388.91
2022-12-03T09:22:35.911Z,102391.63
2022-12-03T09:25:04.872Z,102375.66
2022-12-03T09:27:31.400Z,102379.06
2022-12-03T09:29:58.002Z,102378.03
2022-12-03T09:32:24.475Z,102394.06
2022-12-03T09:34:53.921Z,102393.34
2022-12-03T09:37:23.407Z,102387.25
2022-12-03T09:39:50.213Z,102378.81
2022-12-03T09:44:50.845Z,102388.97
2022-12-03T09:47:18.182Z,102396.06
2022-12-03T09:49:45.109Z,102384.56
2022-12-03T09:52:17.989Z,102386.41
2022-12-03T09:54:47.479Z,102386.28
2022-12-03T09:57:15.347Z,102378.22
2022-12-03T09:59:41.729Z,102396.66
2022-12-03T10:02:24.808Z,102392.22
2022-12-03T10:04:53.196Z,102380.31
2022-12-03T10:07:20.215Z,102385.88
2022-12-03T10:09:46.614Z,102399.47
2022-12-03T10:12:14.930Z,102403.38
2022-12-03T10:14:42.728Z,102395.81
2022-12-03T10:17:11.586Z,102394.84
2022-12-03T10:19:38.039Z,102396.56
2022-12-03T10:22:04.338Z,102381.84
2022-12-03T10:24:32.913Z,102397.75
2022-12-03T10:27:24.527Z,102393.41
2022-12-03T10:29:56.463Z,102403.00
2022-12-03T10:32:43.933Z,102397.31
2022-12-03T10:35:15.906Z,102398.09
2022-12-03T10:38:05.427Z,102390.97
2022-12-03T10:40:36.659Z,102388.00
2022-12-03T10:43:20.474Z,102381.97
2022-12-03T10:45:49.854Z,102377.59
2022-12-03T10:48:17.855Z,102372.72
2022-12-03T10:51:03.109Z,102367.69
2022-12-03T10:53:31.829Z,102375.44
2022-12-03T10:56:04.761Z,102351.78
2022-12-03T10:58:35.408Z,102364.03
2022-12-03T11:01:06.531Z,102364.25
2022-12-03T11:03:36.755Z,102348.44
2022-12-03T11:06:04.754Z,102348.94
2022-12-03T11:08:35.641Z,102350.59
2022-12-03T11:11:07.301Z,102348.28
2022-12-03T11:13:33.866Z,102360.66
2022-12-03T11:16:02.176Z,102326.16
2022-12-03T11:18:58.525Z,102336.94
2022-12-03T11:21:25.138Z,102338.38
2022-12-03T11:23:51.621Z,102337.97
2022-12-03T11:26:27.146Z,102338.97
2022-12-03T11:28:55.917Z,102334.28
2022-12-03T11:31:43.288Z,102328.53
2022-12-03T11:34:18.873Z,102324.78
2022-12-03T11:37:16.380Z,102329.13
2022-12-03T11:39:52.449Z,102314.78
2022-12-03T11:42:22.375Z,102309.91
2022-12-03T11:45:08.648Z,102305.22
2022-12-03T11:48:05.923Z,102311.56
2022-12-03T11:50:54.367Z,102308.91
2022-12-03T11:53:26.385Z,102306.25
2022-12-03T11:56:04.415Z,102300.19
2022-12-03T11:58:31.743Z,102305.28
2022-12-03T12:01:01.037Z,102297.38
2022-12-03T12:03:36.094Z,102301.13
2022-12-03T12:06:20.120Z,102290.34
2022-12-03T12:08:56.908Z,102301.00
2022-12-03T12:11:38.153Z,102292.81
2022-12-03T12:14:09.551Z,102284.19
2022-12-03T12:16:49.379Z,102287.91
2022-12-03T12:19:43.583Z,102284.75
2022-12-03T12:22:28.790Z,102280.22
2022-12-03T12:24:57.469Z,102273.31
2022-12-03T12:27:35.027Z,102264.41
2022-12-03T12:30:14.904Z,102267.47
2022-12-03T12:32:47.601Z,102257.53
2022-12-03T12:35:19.078Z,102261.75
2022-12-03T12:37:58.557Z,102250.88
2022-12-03T12:40:31.470Z,102250.31
2022-12-03T12:43:02.108Z,102250.53
2022-12-03T12:45:35.598Z,102251.84
2022-12-03T12:48:25.290Z,102246.38
2022-12-03T12:50:59.798Z,102242.88
2022-12-03T12:53:32.091Z,102245.66
2022-12-03T12:56:15.132Z,102249.09
2022-12-03T12:58:41.833Z,102254.31
2022-12-03T13:01:17.475Z,102249.47
2022-12-03T13:03:43.854Z,102242.84
2022-12-03T13:06:14.833Z,102244.38
2022-12-03T13:08:44.980Z,102245.03
2022-12-03T13:11:39.750Z,102238.75
2022-12-03T13:14:13.115Z,102248.72
2022-12-03T13:16:39.865Z,102238.72
2022-12-03T13:19:19.653Z,102245.34
2022-12-03T13:21:46.503Z,102239.44
2022-12-03T13:24:50.883Z,102244.75
2022-12-03T13:27:17.158Z,102235.06
2022-12-03T13:29:51.409Z,102237.25
2022-12-03T13:32:29.257Z,102238.75
2022-12-03T13:35:06.059Z,102233.41
2022-12-03T13:37:32.786Z,102228.56
2022-12-03T13:40:27.471Z,102223.28
2022-12-03T13:42:53.976Z,102218.16
2022-12-03T13:45:29.475Z,102219.22
2022-12-03T13:47:59.014Z,102214.97
2022-12-03T13:50:36.504Z,102214.03
2022-12-03T13:53:13.519Z,102211.28
2022-12-03T13:55:44.233Z,102209.00
2022-12-03T13:58:10.644Z,102216.63
2022-12-03T14:00:37.015Z,102206.25
2022-12-03T14:03:04.473Z,102210.88
2022-12-03T14:05:30.987Z,102211.06
2022-12-03T14:07:58.881Z,102212.25
2022-12-03T14:10:25.538Z,102205.88
2022-12-03T14:12:51.991Z,102200.78
2022-12-03T14:15:18.350Z,102209.03
2022-12-03T14:17:44.818Z,102203.75
2022-12-03T14:20:11.736Z,102196.63
2022-12-03T14:22:38.213Z,102196.63
2022-12-03T14:25:06.083Z,102187.63
2022-12-03T14:27:32.546Z,102191.41
2022-12-03T14:29:59.492Z,102195.81
2022-12-03T14:32:26.290Z,102196.03
2022-12-03T14:34:52.697Z,102193.31
2022-12-03T14:37:19.016Z,102196.34
2022-12-03T14:39:45.365Z,102191.72
2022-12-03T14:42:11.786Z,102197.72
2022-12-03T14:44:38.218Z,102193.19
2022-12-03T14:47:04.808Z,102188.03
2022-12-03T14:49:31.235Z,102187.28
2022-12-03T14:51:57.659Z,102196.06
2022-12-03T14:54:24.266Z,102188.81
2022-12-03T14:56:50.691Z,102197.88
2022-12-03T14:59:17.219Z,102192.63
2022-12-03T15:01:43.622Z,102196.22
2022-12-03T15:06:51.699Z,102185.78
2022-12-03T15:09:18.230Z,102193.56
2022-12-03T15:11:46.380Z,102176.97
2022-12-03T15:14:13.656Z,102192.31
2022-12-03T15:16:40.910Z,102188.41
2022-12-03T15:19:07.419Z,102189.38
2022-12-03T15:21:34.026Z,102186.75
2022-12-03T15:24:03.882Z,102186.59
2022-12-03T15:26:30.328Z,102184.91
2022-12-03T15:28:56.855Z,102191.56
2022-12-03T15:31:23.455Z,102190.19
2022-12-03T15:33:49.993Z,102190.13
2022-12-03T15:36:16.597Z,102183.91
2022-12-03T15:38:43.259Z,102184.63
2022-12-03T15:41:09.828Z,102190.06
2022-12-03T15:43:36.210Z,102182.78
2022-12-03T15:46:02.619Z,102192.50
2022-12-03T15:48:28.988Z,102188.78
2022-12-03T15:50:55.351Z,102190.78
2022-12-03T15:53:21.630Z,102194.28
2022-12-03T15:55:47.925Z,102200.69
2022-12-03T15:58:14.420Z,102195.28
2022-12-03T16:00:41.000Z,102192.50
2022-12-03T16:03:07.675Z,102198.84
2022-12-03T16:05:34.129Z,102198.84
2022-12-03T16:08:01.110Z,102184.63
2022-12-03T16:10:27.672Z,102187.47
2022-12-03T16:12:54.096Z,102195.41
2022-12-03T16:15:26.466Z,102194.34
2022-12-03T16:17:53.682Z,102188.81
2022-12-03T16:20:20.020Z,102191.00
2022-12-03T16:22:46.502Z,102189.25
2022-12-03T16:25:12.936Z,102184.03
2022-12-03T16:27:39.275Z,102182.56
2022-12-03T16:30:07.284Z,102176.97
2022-12-03T16:32:33.717Z,102194.09
2022-12-03T16:35:00.136Z,102198.59
2022-12-03T16:37:26.483Z,102183.84
2022-12-03T16:39:53.143Z,102184.56
2022-12-03T16:42:19.816Z,102179.13
2022-12-03T16:44:46.170Z,102177.34
2022-12-03T16:47:12.686Z,102172.16
2022-12-03T16:49:39.047Z,102176.44
2022-12-03T16:52:05.423Z,102174.00
2022-12-03T16:54:31.761Z,102173.34
2022-12-03T16:56:58.309Z,102169.56
2022-12-03T16:59:24.614Z,102169.59
2022-12-03T17:01:51.209Z,102173.28
2022-12-03T17:04:17.652Z,102163.28
2022-12-03T17:06:44.082Z,102164.53
2022-12-03T17:09:10.452Z,102159.44
2022-12-03T17:11:36.851Z,102166.53
2022-12-03T17:14:03.375Z,102167.31
2022-12-03T17:16:29.828Z,102150.72
2022-12-03T17:18:56.201Z,102176.00
2022-12-03T17:21:22.615Z,102170.81
2022-12-03T17:23:48.996Z,102172.41
2022-12-03T17:26:15.434Z,102177.75
2022-12-03T17:28:42.508Z,102171.88
2022-12-03T17:31:09.069Z,102169.91
2022-12-03T17:33:36.225Z,102173.81
2022-12-03T17:36:03.380Z,102172.53
2022-12-03T17:38:34.152Z,102178.63
2022-12-03T17:41:05.542Z,102177.13
2022-12-03T17:43:32.014Z,102175.59
2022-12-03T17:45:59.757Z,102168.16
2022-12-03T17:48:26.457Z,102173.47
2022-12-03T17:50:52.948Z,102167.44
2022-12-03T17:53:19.381Z,102175.25
2022-12-03T17:55:45.724Z,102168.81
2022-12-03T17:58:12.249Z,102168.22
2022-12-03T18:00:39.446Z,102165.72
2022-12-03T18:03:05.855Z,102164.88
2022-12-03T18:05:33.678Z,102170.25
2022-12-03T18:08:00.478Z,102177.09
2022-12-03T18:10:27.086Z,102174.81
2022-12-03T18:12:58.309Z,102175.53
2022-12-03T18:15:27.788Z,102166.72
2022-12-03T18:17:54.232Z,102159.72
2022-12-03T18:20:20.615Z,102147.94
2022-12-03T18:22:47.062Z,102161.44
2022-12-03T18:25:13.913Z,102153.34
2022-12-03T18:27:40.415Z,102150.97
2022-12-03T18:30:07.527Z,102152.56
2022-12-03T18:32:34.014Z,102146.13
2022-12-03T18:35:00.446Z,102150.44
2022-12-03T18:37:29.342Z,102132.91
2022-12-03T18:39:57.345Z,102137.00
2022-12-03T18:42:24.577Z,102141.84
2022-12-03T18:44:53.903Z,102148.00
2022-12-03T18:47:23.556Z,102136.59
2022-12-03T18:49:53.621Z,102151.44
2022-12-03T18:52:22.161Z,102141.84
2022-12-03T18:54:49.142Z,102131.19
2022-12-03T18:57:15.831Z,102137.22
2022-12-03T18:59:42.518Z,102139.41
2022-12-03T19:02:26.653Z,102139.97
2022-12-03T19:05:01.803Z,102140.34
2022-12-03T19:07:28.270Z,102133.25
2022-12-03T19:09:55.078Z,102137.63
2022-12-03T19:12:21.835Z,102146.47
2022-12-03T19:14:48.228Z,102139.06
2022-12-03T19:17:14.653Z,102133.97
2022-12-03T19:19:40.966Z,102141.97
2022-12-03T19:22:11.622Z,102139.47
2022-12-03T19:24:38.384Z,102140.91
2022-12-03T19:27:04.840Z,102137.34
2022-12-03T19:29:32.165Z,102139.25
2022-12-03T19:31:58.585Z,102127.94
2022-12-03T19:34:25.068Z,102143.03
2022-12-03T19:36:51.991Z,102128.72
2022-12-03T19:39:18.613Z,102130.59
2022-12-03T19:41:45.229Z,102130.47
2022-12-03T19:44:16.458Z,102137.72
2022-12-03T19:46:43.538Z,102123.19
2022-12-03T19:49:10.719Z,102120.53
2022-12-03T19:51:37.228Z,102130.41
2022-12-03T19:54:05.393Z,102121.47
2022-12-03T19:56:31.944Z,102126.97
2022-12-03T19:58:58.759Z,102122.56
2022-12-03T20:01:27.935Z,102119.88
2022-12-03T20:03:57.366Z,102122.50
2022-12-03T20:06:27.909Z,102121.53
2022-12-03T20:09:00.966Z,102125.94
2022-12-03T20:11:31.564Z,102127.81
2022-12-03T20:14:04.364Z,102130.47
2022-12-03T20:16:32.496Z,102127.88
2022-12-03T20:19:01.871Z,102134.16
2022-12-03T20:21:30.879Z,102128.00
2022-12-03T20:23:57.686Z,102123.31
2022-12-03T20:26:25.168Z,102124.16
2022-12-03T20:28:53.465Z,102121.44
2022-12-03T20:31:22.365Z,102118.81
2022-12-03T20:33:52.054Z,102117.53
2022-12-03T20:36:20.388Z,102115.38
2022-12-03T20:38:47.242Z,102107.50
2022-12-03T20:41:16.119Z,102112.59
2022-12-03T20:43:42.658Z,102100.47
2022-12-03T20:46:16.827Z,102103.06
2022-12-03T20:48:44.361Z,102112.13
2022-12-03T20:51:13.938Z,102103.06
2022-12-03T20:53:41.582Z,102093.25
2022-12-03T20:56:09.119Z,102093.31
2022-12-03T20:58:36.235Z,102090.59
2022-12-03T21:01:16.216Z,102086.34
2022-12-03T21:03:44.253Z,102096.31
2022-12-03T21:06:11.604Z,102098.13
2022-12-03T21:08:42.023Z,102101.56
2022-12-03T21:11:14.821Z,102092.59
2022-12-03T21:13:42.237Z,102074.41
2022-12-03T21:16:10.773Z,102092.69
2022-12-03T21:18:37.611Z,102092.88
2022-12-03T21:21:05.167Z,102074.34
2022-12-03T21:23:32.864Z,102081.53
2022-12-03T21:26:04.907Z,102086.84
2022-12-03T21:28:31.543Z,102087.66
2022-12-03T21:31:03.520Z,102083.78
2022-12-03T21:33:30.318Z,102084.00
2022-12-03T21:35:57.158Z,102092.09
2022-12-03T21:38:24.532Z,102082.09
2022-12-03T21:40:51.156Z,102084.50
2022-12-03T21:43:17.712Z,102087.38
2022-12-03T21:45:44.624Z,102085.59
2022-12-03T21:48:11.055Z,102091.69
2022-12-03T21:50:37.405Z,102075.13
2022-12-03T21:53:03.872Z,102083.13
2022-12-03T21:55:30.246Z,102080.44
2022-12-03T21:57:56.668Z,102090.56
2022-12-03T22:00:23.186Z,102086.84
2022-12-03T22:02:49.579Z,102078.84
2022-12-03T22:05:16.191Z,102080.34
2022-12-03T22:07:42.764Z,102076.78
2022-12-03T22:10:11.039Z,102073.59
2022-12-03T22:12:38.693Z,102088.66
2022-12-03T22:15:05.566Z,102085.06
2022-12-03T22:17:31.924Z,102080.41
2022-12-03T22:19:58.333Z,102078.00
2022-12-03T22:22:24.734Z,102064.47
2022-12-03T22:24:52.133Z,102068.44
2022-12-03T22:27:18.465Z,102078.25
2022-12-03T22:29:44.844Z,102073.63
2022-12-03T22:32:11.412Z,102082.41
2022-12-03T22:34:37.747Z,102082.75
2022-12-03T22:37:04.490Z,102079.03
2022-12-03T22:39:30.848Z,102081.69
2022-12-03T22:41:57.207Z,102078.31
2022-12-03T22:44:24.760Z,102066.72
2022-12-03T22:46:51.267Z,102070.03
2022-12-03T22:49:17.942Z,102073.44
2022-12-03T22:51:45.714Z,102077.25
2022-12-03T22:54:12.191Z,102073.28
2022-12-03T22:56:38.592Z,102059.25
2022-12-03T22:59:05.482Z,102059.03
2022-12-03T23:01:34.869Z,102060.94
2022-12-03T23:04:02.154Z,102052.09
2022-12-03T23:06:29.997Z,102054.66
2022-12-03T23:08:57.738Z,102054.94
2022-12-03T23:11:24.280Z,102049.56
2022-12-03T23:13:51.111Z,102050.19
2022-12-03T23:16:29.766Z,102049.38
2022-12-03T23:19:01.074Z,102044.47
2022-12-03T23:21:30.592Z,102051.03
2022-12-03T23:23:59.355Z,102044.88
2022-12-03T23:26:28.245Z,102049.38
2022-12-03T23:28:55.003Z,102053.94
2022-12-03T23:31:27.151Z,102047.66
2022-12-03T23:33:53.944Z,102057.31
2022-12-03T23:36:21.512Z,102053.81
2022-12-03T23:38:48.107Z,102057.38
2022-12-03T23:41:16.869Z,102054.00
2022-12-03T23:43:43.730Z,102059.03
2022-12-03T23:46:16.352Z,102061.69
2022-12-03T23:48:43.545Z,102060.94
2022-12-03T23:51:14.724Z,102056.38
2022-12-03T23:53:42.406Z,102051.03
2022-12-03T23:56:17.754Z,102047.41
2022-12-03T23:58:45.108Z,102054.41
